KGAG/GAG METAR and TAF weather

Enter ICAO airport designator
Station Type Date Time Source
KGAG METAR 2022/01/23 12:53 UTC NOAA

KGAG 231253Z AUTO 27009KT 10SM CLR M04/M06 A3020 RMK AO2 SLP245 T10391061 TSNO


Station Type Date Time Source
KGAG Decoded METAR 2022/01/23 12:53 UTC NOAA

GAGE AIRPORT, OK, United States (KGAG) 36-18N 99-46W 668M
Jan 23, 2022 - 07:53 AM EST / 2022.01.23 1253 UTC
Wind: from the W (270 degrees) at 10 MPH (9 KT):0
Visibility: 10 mile(s):0
Sky conditions: clear
Temperature: 25.0 F (-3.9 C)
Windchill: 15 F (-9 C):1
Dew Point: 21.0 F (-6.1 C)
Relative Humidity: 84%
Pressure (altimeter): 30.2 in. Hg (1022 hPa)
ob: KGAG 231253Z AUTO 27009KT 10SM CLR M04/M06 A3020 RMK AO2 SLP245 T10391061 TSNO
cycle: 13

Station Type Date Time Source
KGAG TAF 2018/03/21 06:22 UTC NOAA

TAF KGAG 210520Z 2106/2206 VRB04KT P6SM SCT250
FM211300 16008KT P6SM SCT250
FM211800 18012G22KT P6SM BKN250

Example: see airport list